sensor_id;sensor_type;location;lat;lon;timestamp;P1;durP1;ratioP1;P2;durP2;ratioP2
47856;SDS011;33618;49.972;8.242;2023-10-13T00:02:03;17.40;;;10.20;;
47856;SDS011;33618;49.972;8.242;2023-10-13T00:04:32;14.52;;;9.95;;
47856;SDS011;33618;49.972;8.242;2023-10-13T00:07:02;17.20;;;9.70;;
47856;SDS011;33618;49.972;8.242;2023-10-13T00:09:31;12.73;;;10.27;;
47856;SDS011;33618;49.972;8.242;2023-10-13T00:12:04;11.38;;;9.68;;
47856;SDS011;33618;49.972;8.242;2023-10-13T00:14:41;10.98;;;8.27;;
47856;SDS011;33618;49.972;8.242;2023-10-13T00:17:12;15.15;;;8.38;;
47856;SDS011;33618;49.972;8.242;2023-10-13T00:19:47;14.88;;;8.82;;
47856;SDS011;33618;49.972;8.242;2023-10-13T00:22:19;13.27;;;9.63;;
47856;SDS011;33618;49.972;8.242;2023-10-13T00:24:49;12.50;;;9.32;;
47856;SDS011;33618;49.972;8.242;2023-10-13T00:27:18;15.43;;;10.13;;
47856;SDS011;33618;49.972;8.242;2023-10-13T00:29:57;17.83;;;10.23;;
47856;SDS011;33618;49.972;8.242;2023-10-13T00:32:54;13.30;;;9.73;;
47856;SDS011;33618;49.972;8.242;2023-10-13T00:35:22;12.15;;;9.30;;
47856;SDS011;33618;49.972;8.242;2023-10-13T00:37:52;12.65;;;8.60;;
47856;SDS011;33618;49.972;8.242;2023-10-13T00:40:23;12.63;;;8.80;;
47856;SDS011;33618;49.972;8.242;2023-10-13T00:42:57;13.02;;;8.68;;
47856;SDS011;33618;49.972;8.242;2023-10-13T00:46:09;11.52;;;9.35;;
47856;SDS011;33618;49.972;8.242;2023-10-13T00:48:40;18.30;;;9.77;;
47856;SDS011;33618;49.972;8.242;2023-10-13T00:51:10;12.88;;;10.15;;
47856;SDS011;33618;49.972;8.242;2023-10-13T00:53:45;13.93;;;9.25;;
47856;SDS011;33618;49.972;8.242;2023-10-13T00:56:14;17.13;;;11.07;;
47856;SDS011;33618;49.972;8.242;2023-10-13T00:58:50;20.27;;;14.07;;
47856;SDS011;33618;49.972;8.242;2023-10-13T01:01:19;21.50;;;13.13;;
47856;SDS011;33618;49.972;8.242;2023-10-13T01:03:56;18.73;;;9.02;;
47856;SDS011;33618;49.972;8.242;2023-10-13T01:06:27;20.05;;;15.20;;
47856;SDS011;33618;49.972;8.242;2023-10-13T01:08:58;17.98;;;12.88;;
47856;SDS011;33618;49.972;8.242;2023-10-13T01:11:46;18.20;;;7.93;;
47856;SDS011;33618;49.972;8.242;2023-10-13T01:14:18;12.90;;;7.97;;
47856;SDS011;33618;49.972;8.242;2023-10-13T01:16:47;11.82;;;7.57;;
47856;SDS011;33618;49.972;8.242;2023-10-13T01:19:19;13.50;;;8.15;;
47856;SDS011;33618;49.972;8.242;2023-10-13T01:21:51;13.23;;;8.63;;
47856;SDS011;33618;49.972;8.242;2023-10-13T01:24:29;14.20;;;7.93;;
47856;SDS011;33618;49.972;8.242;2023-10-13T01:27:03;11.05;;;7.47;;
47856;SDS011;33618;49.972;8.242;2023-10-13T01:29:56;18.50;;;13.05;;
47856;SDS011;33618;49.972;8.242;2023-10-13T01:32:32;14.07;;;9.63;;
47856;SDS011;33618;49.972;8.242;2023-10-13T01:34:59;21.40;;;14.90;;
47856;SDS011;33618;49.972;8.242;2023-10-13T01:37:32;16.08;;;9.73;;
47856;SDS011;33618;49.972;8.242;2023-10-13T01:40:00;16.15;;;10.13;;
47856;SDS011;33618;49.972;8.242;2023-10-13T01:42:27;13.30;;;10.07;;
47856;SDS011;33618;49.972;8.242;2023-10-13T01:44:57;19.45;;;12.88;;
47856;SDS011;33618;49.972;8.242;2023-10-13T01:47:32;12.93;;;10.23;;
47856;SDS011;33618;49.972;8.242;2023-10-13T01:49:59;16.15;;;12.82;;
47856;SDS011;33618;49.972;8.242;2023-10-13T01:52:40;9.38;;;8.43;;
47856;SDS011;33618;49.972;8.242;2023-10-13T01:55:10;16.30;;;10.65;;
47856;SDS011;33618;49.972;8.242;2023-10-13T01:57:38;15.38;;;9.50;;
47856;SDS011;33618;49.972;8.242;2023-10-13T02:00:07;14.13;;;9.50;;
47856;SDS011;33618;49.972;8.242;2023-10-13T02:02:45;19.65;;;13.55;;
47856;SDS011;33618;49.972;8.242;2023-10-13T02:05:16;18.48;;;13.93;;
47856;SDS011;33618;49.972;8.242;2023-10-13T02:07:43;14.35;;;11.70;;
47856;SDS011;33618;49.972;8.242;2023-10-13T02:10:12;17.00;;;10.57;;
47856;SDS011;33618;49.972;8.242;2023-10-13T02:12:39;17.05;;;12.48;;
47856;SDS011;33618;49.972;8.242;2023-10-13T02:15:10;16.60;;;11.00;;
47856;SDS011;33618;49.972;8.242;2023-10-13T02:17:48;18.60;;;9.85;;
47856;SDS011;33618;49.972;8.242;2023-10-13T02:20:22;19.20;;;14.00;;
47856;SDS011;33618;49.972;8.242;2023-10-13T02:22:57;14.57;;;10.48;;
47856;SDS011;33618;49.972;8.242;2023-10-13T02:25:24;15.93;;;13.27;;
47856;SDS011;33618;49.972;8.242;2023-10-13T02:28:13;17.73;;;12.32;;
47856;SDS011;33618;49.972;8.242;2023-10-13T02:30:41;15.40;;;11.65;;
47856;SDS011;33618;49.972;8.242;2023-10-13T02:33:12;13.75;;;9.10;;
47856;SDS011;33618;49.972;8.242;2023-10-13T02:35:39;17.35;;;11.23;;
47856;SDS011;33618;49.972;8.242;2023-10-13T02:38:16;13.13;;;10.27;;
47856;SDS011;33618;49.972;8.242;2023-10-13T02:40:53;14.35;;;8.60;;
47856;SDS011;33618;49.972;8.242;2023-10-13T02:43:21;15.93;;;9.15;;
47856;SDS011;33618;49.972;8.242;2023-10-13T02:45:51;12.45;;;9.40;;
47856;SDS011;33618;49.972;8.242;2023-10-13T02:48:25;13.73;;;10.73;;
47856;SDS011;33618;49.972;8.242;2023-10-13T02:50:57;16.00;;;11.25;;
47856;SDS011;33618;49.972;8.242;2023-10-13T02:53:28;14.93;;;9.98;;
47856;SDS011;33618;49.972;8.242;2023-10-13T02:55:55;14.25;;;11.00;;
47856;SDS011;33618;49.972;8.242;2023-10-13T02:58:32;15.73;;;10.10;;
47856;SDS011;33618;49.972;8.242;2023-10-13T03:01:06;13.18;;;8.93;;
47856;SDS011;33618;49.972;8.242;2023-10-13T03:03:45;13.90;;;11.05;;
47856;SDS011;33618;49.972;8.242;2023-10-13T03:06:22;15.82;;;11.25;;
47856;SDS011;33618;49.972;8.242;2023-10-13T03:08:59;10.60;;;9.25;;
47856;SDS011;33618;49.972;8.242;2023-10-13T03:11:48;11.98;;;9.68;;
47856;SDS011;33618;49.972;8.242;2023-10-13T03:14:16;18.48;;;9.60;;
47856;SDS011;33618;49.972;8.242;2023-10-13T03:16:58;15.60;;;10.32;;
47856;SDS011;33618;49.972;8.242;2023-10-13T03:19:35;12.75;;;9.55;;
47856;SDS011;33618;49.972;8.242;2023-10-13T03:22:07;16.10;;;9.90;;
47856;SDS011;33618;49.972;8.242;2023-10-13T03:24:38;12.60;;;9.35;;
47856;SDS011;33618;49.972;8.242;2023-10-13T03:27:18;13.10;;;9.80;;
47856;SDS011;33618;49.972;8.242;2023-10-13T03:29:50;13.43;;;9.07;;
47856;SDS011;33618;49.972;8.242;2023-10-13T03:32:26;16.02;;;9.75;;
47856;SDS011;33618;49.972;8.242;2023-10-13T03:34:56;19.95;;;10.88;;
47856;SDS011;33618;49.972;8.242;2023-10-13T03:37:26;12.55;;;10.02;;
47856;SDS011;33618;49.972;8.242;2023-10-13T03:40:09;15.20;;;10.30;;
47856;SDS011;33618;49.972;8.242;2023-10-13T03:42:50;14.48;;;10.60;;
47856;SDS011;33618;49.972;8.242;2023-10-13T03:45:31;17.67;;;10.45;;
47856;SDS011;33618;49.972;8.242;2023-10-13T03:48:25;19.20;;;10.48;;
47856;SDS011;33618;49.972;8.242;2023-10-13T03:50:52;16.35;;;10.52;;
47856;SDS011;33618;49.972;8.242;2023-10-13T03:53:41;14.55;;;10.55;;
47856;SDS011;33618;49.972;8.242;2023-10-13T03:56:25;14.52;;;10.25;;
47856;SDS011;33618;49.972;8.242;2023-10-13T03:58:58;13.13;;;9.43;;
47856;SDS011;33618;49.972;8.242;2023-10-13T04:01:41;18.38;;;10.18;;
47856;SDS011;33618;49.972;8.242;2023-10-13T04:04:29;14.35;;;9.75;;
47856;SDS011;33618;49.972;8.242;2023-10-13T04:07:08;11.85;;;9.80;;
47856;SDS011;33618;49.972;8.242;2023-10-13T04:09:35;12.85;;;9.82;;
47856;SDS011;33618;49.972;8.242;2023-10-13T04:12:04;11.70;;;9.73;;
47856;SDS011;33618;49.972;8.242;2023-10-13T04:14:33;14.40;;;10.25;;
47856;SDS011;33618;49.972;8.242;2023-10-13T04:17:22;21.55;;;10.38;;
47856;SDS011;33618;49.972;8.242;2023-10-13T04:19:53;17.08;;;11.05;;
47856;SDS011;33618;49.972;8.242;2023-10-13T04:22:36;17.30;;;11.05;;
47856;SDS011;33618;49.972;8.242;2023-10-13T04:28:05;16.27;;;10.88;;
47856;SDS011;33618;49.972;8.242;2023-10-13T04:30:44;14.68;;;8.90;;
47856;SDS011;33618;49.972;8.242;2023-10-13T04:33:26;16.02;;;9.50;;
47856;SDS011;33618;49.972;8.242;2023-10-13T04:38:41;15.40;;;8.07;;
47856;SDS011;33618;49.972;8.242;2023-10-13T04:41:28;19.08;;;8.18;;
47856;SDS011;33618;49.972;8.242;2023-10-13T04:44:16;19.00;;;7.78;;
47856;SDS011;33618;49.972;8.242;2023-10-13T04:46:56;12.77;;;7.45;;
47856;SDS011;33618;49.972;8.242;2023-10-13T04:49:28;13.73;;;7.85;;
47856;SDS011;33618;49.972;8.242;2023-10-13T04:52:02;16.52;;;7.45;;
47856;SDS011;33618;49.972;8.242;2023-10-13T04:54:38;19.00;;;8.00;;
47856;SDS011;33618;49.972;8.242;2023-10-13T04:57:22;13.57;;;7.95;;
47856;SDS011;33618;49.972;8.242;2023-10-13T04:59:50;14.60;;;7.30;;
47856;SDS011;33618;49.972;8.242;2023-10-13T05:02:43;18.10;;;7.10;;
47856;SDS011;33618;49.972;8.242;2023-10-13T05:05:26;14.52;;;7.32;;
47856;SDS011;33618;49.972;8.242;2023-10-13T05:08:19;20.70;;;7.65;;
47856;SDS011;33618;49.972;8.242;2023-10-13T05:11:09;14.43;;;6.93;;
47856;SDS011;33618;49.972;8.242;2023-10-13T05:13:55;13.85;;;7.38;;
47856;SDS011;33618;49.972;8.242;2023-10-13T05:16:40;15.43;;;6.93;;
47856;SDS011;33618;49.972;8.242;2023-10-13T05:19:26;12.63;;;7.07;;
47856;SDS011;33618;49.972;8.242;2023-10-13T05:22:11;13.88;;;7.80;;
47856;SDS011;33618;49.972;8.242;2023-10-13T05:24:57;13.18;;;7.50;;
47856;SDS011;33618;49.972;8.242;2023-10-13T05:27:43;12.05;;;7.85;;
47856;SDS011;33618;49.972;8.242;2023-10-13T05:30:32;15.57;;;8.35;;
47856;SDS011;33618;49.972;8.242;2023-10-13T05:33:18;12.75;;;8.48;;
47856;SDS011;33618;49.972;8.242;2023-10-13T05:36:08;12.98;;;9.45;;
47856;SDS011;33618;49.972;8.242;2023-10-13T05:38:55;17.58;;;9.52;;
47856;SDS011;33618;49.972;8.242;2023-10-13T05:41:41;13.63;;;10.48;;
47856;SDS011;33618;49.972;8.242;2023-10-13T05:44:26;16.10;;;10.18;;
47856;SDS011;33618;49.972;8.242;2023-10-13T05:46:59;15.15;;;9.23;;
47856;SDS011;33618;49.972;8.242;2023-10-13T05:50:02;22.77;;;12.15;;
47856;SDS011;33618;49.972;8.242;2023-10-13T05:52:43;18.35;;;8.75;;
47856;SDS011;33618;49.972;8.242;2023-10-13T05:55:24;17.33;;;9.07;;
47856;SDS011;33618;49.972;8.242;2023-10-13T05:58:11;23.85;;;13.32;;
47856;SDS011;33618;49.972;8.242;2023-10-13T06:00:56;18.67;;;13.95;;
47856;SDS011;33618;49.972;8.242;2023-10-13T06:03:42;23.52;;;13.73;;
47856;SDS011;33618;49.972;8.242;2023-10-13T06:06:28;15.77;;;11.40;;
47856;SDS011;33618;49.972;8.242;2023-10-13T06:09:14;21.48;;;12.25;;
47856;SDS011;33618;49.972;8.242;2023-10-13T06:11:59;19.27;;;12.07;;
47856;SDS011;33618;49.972;8.242;2023-10-13T06:14:45;18.40;;;11.00;;
47856;SDS011;33618;49.972;8.242;2023-10-13T06:17:31;15.77;;;11.10;;
47856;SDS011;33618;49.972;8.242;2023-10-13T06:20:16;16.90;;;10.55;;
47856;SDS011;33618;49.972;8.242;2023-10-13T06:23:02;17.77;;;9.55;;
47856;SDS011;33618;49.972;8.242;2023-10-13T06:25:51;11.82;;;8.63;;
47856;SDS011;33618;49.972;8.242;2023-10-13T06:28:37;15.57;;;8.52;;
47856;SDS011;33618;49.972;8.242;2023-10-13T06:31:07;15.48;;;9.02;;
47856;SDS011;33618;49.972;8.242;2023-10-13T06:33:38;12.50;;;8.70;;
47856;SDS011;33618;49.972;8.242;2023-10-13T06:36:11;22.05;;;8.88;;
47856;SDS011;33618;49.972;8.242;2023-10-13T06:38:38;10.63;;;8.20;;
47856;SDS011;33618;49.972;8.242;2023-10-13T06:41:06;16.83;;;9.00;;
47856;SDS011;33618;49.972;8.242;2023-10-13T06:43:34;12.82;;;8.77;;
47856;SDS011;33618;49.972;8.242;2023-10-13T06:46:09;21.67;;;8.88;;
47856;SDS011;33618;49.972;8.242;2023-10-13T06:48:42;15.70;;;9.30;;
47856;SDS011;33618;49.972;8.242;2023-10-13T06:51:10;16.00;;;8.68;;
47856;SDS011;33618;49.972;8.242;2023-10-13T06:53:49;15.98;;;8.80;;
47856;SDS011;33618;49.972;8.242;2023-10-13T06:56:22;14.80;;;9.02;;
47856;SDS011;33618;49.972;8.242;2023-10-13T06:58:54;11.60;;;8.55;;
47856;SDS011;33618;49.972;8.242;2023-10-13T07:01:31;12.93;;;8.38;;
47856;SDS011;33618;49.972;8.242;2023-10-13T07:04:08;12.25;;;8.63;;
47856;SDS011;33618;49.972;8.242;2023-10-13T07:06:40;12.90;;;8.30;;
47856;SDS011;33618;49.972;8.242;2023-10-13T07:09:15;15.13;;;7.97;;
47856;SDS011;33618;49.972;8.242;2023-10-13T07:12:02;12.77;;;6.57;;
47856;SDS011;33618;49.972;8.242;2023-10-13T07:14:33;11.90;;;6.90;;
47856;SDS011;33618;49.972;8.242;2023-10-13T07:17:01;11.85;;;6.55;;
47856;SDS011;33618;49.972;8.242;2023-10-13T07:19:31;11.63;;;6.10;;
47856;SDS011;33618;49.972;8.242;2023-10-13T07:22:01;13.48;;;6.22;;
47856;SDS011;33618;49.972;8.242;2023-10-13T07:24:47;8.43;;;6.03;;
47856;SDS011;33618;49.972;8.242;2023-10-13T07:27:20;14.98;;;6.13;;
47856;SDS011;33618;49.972;8.242;2023-10-13T07:29:51;11.60;;;6.07;;
47856;SDS011;33618;49.972;8.242;2023-10-13T07:32:23;9.70;;;5.50;;
47856;SDS011;33618;49.972;8.242;2023-10-13T07:34:54;13.68;;;5.70;;
47856;SDS011;33618;49.972;8.242;2023-10-13T07:37:24;14.40;;;5.97;;
47856;SDS011;33618;49.972;8.242;2023-10-13T07:39:55;12.60;;;6.00;;
47856;SDS011;33618;49.972;8.242;2023-10-13T07:42:25;12.45;;;5.90;;
47856;SDS011;33618;49.972;8.242;2023-10-13T07:44:58;11.32;;;5.97;;
47856;SDS011;33618;49.972;8.242;2023-10-13T07:47:25;9.73;;;5.32;;
47856;SDS011;33618;49.972;8.242;2023-10-13T07:49:55;13.95;;;5.95;;
47856;SDS011;33618;49.972;8.242;2023-10-13T07:52:23;15.40;;;6.13;;
47856;SDS011;33618;49.972;8.242;2023-10-13T07:54:56;10.93;;;6.43;;
47856;SDS011;33618;49.972;8.242;2023-10-13T07:57:40;10.07;;;5.97;;
47856;SDS011;33618;49.972;8.242;2023-10-13T08:00:21;14.10;;;5.82;;
47856;SDS011;33618;49.972;8.242;2023-10-13T08:02:58;9.10;;;5.43;;
47856;SDS011;33618;49.972;8.242;2023-10-13T08:05:41;12.52;;;5.90;;
47856;SDS011;33618;49.972;8.242;2023-10-13T08:08:36;13.48;;;6.13;;
47856;SDS011;33618;49.972;8.242;2023-10-13T08:11:06;12.25;;;5.63;;
47856;SDS011;33618;49.972;8.242;2023-10-13T08:13:38;13.00;;;6.10;;
47856;SDS011;33618;49.972;8.242;2023-10-13T08:16:29;13.30;;;5.82;;
47856;SDS011;33618;49.972;8.242;2023-10-13T08:19:13;11.80;;;5.75;;
47856;SDS011;33618;49.972;8.242;2023-10-13T08:21:44;14.45;;;5.57;;
47856;SDS011;33618;49.972;8.242;2023-10-13T08:24:20;11.25;;;6.05;;
47856;SDS011;33618;49.972;8.242;2023-10-13T08:27:06;12.48;;;5.80;;
47856;SDS011;33618;49.972;8.242;2023-10-13T08:29:33;11.15;;;5.95;;
47856;SDS011;33618;49.972;8.242;2023-10-13T08:32:35;10.40;;;6.07;;
47856;SDS011;33618;49.972;8.242;2023-10-13T08:35:09;15.20;;;5.75;;
47856;SDS011;33618;49.972;8.242;2023-10-13T08:37:48;9.48;;;5.53;;
47856;SDS011;33618;49.972;8.242;2023-10-13T08:40:18;16.55;;;5.78;;
47856;SDS011;33618;49.972;8.242;2023-10-13T08:43:10;13.32;;;6.20;;
47856;SDS011;33618;49.972;8.242;2023-10-13T08:45:39;15.02;;;5.25;;
47856;SDS011;33618;49.972;8.242;2023-10-13T08:48:10;14.18;;;6.32;;
47856;SDS011;33618;49.972;8.242;2023-10-13T08:53:21;11.93;;;5.43;;
47856;SDS011;33618;49.972;8.242;2023-10-13T08:56:06;12.23;;;5.78;;
47856;SDS011;33618;49.972;8.242;2023-10-13T08:58:41;8.65;;;5.28;;
47856;SDS011;33618;49.972;8.242;2023-10-13T09:04:05;11.07;;;5.68;;
47856;SDS011;33618;49.972;8.242;2023-10-13T09:09:29;10.07;;;5.85;;
47856;SDS011;33618;49.972;8.242;2023-10-13T09:15:01;8.77;;;5.63;;
47856;SDS011;33618;49.972;8.242;2023-10-13T09:17:47;12.23;;;5.60;;
47856;SDS011;33618;49.972;8.242;2023-10-13T09:20:30;9.93;;;5.72;;
47856;SDS011;33618;49.972;8.242;2023-10-13T09:23:10;12.27;;;5.88;;
47856;SDS011;33618;49.972;8.242;2023-10-13T09:25:46;9.00;;;5.50;;
47856;SDS011;33618;49.972;8.242;2023-10-13T09:28:27;10.68;;;6.40;;
47856;SDS011;33618;49.972;8.242;2023-10-13T09:30:55;11.23;;;5.78;;
47856;SDS011;33618;49.972;8.242;2023-10-13T09:33:26;8.68;;;5.60;;
47856;SDS011;33618;49.972;8.242;2023-10-13T09:36:06;12.90;;;6.03;;
47856;SDS011;33618;49.972;8.242;2023-10-13T09:38:34;14.07;;;5.72;;
47856;SDS011;33618;49.972;8.242;2023-10-13T09:41:14;12.25;;;5.97;;
47856;SDS011;33618;49.972;8.242;2023-10-13T09:43:47;13.43;;;6.40;;
47856;SDS011;33618;49.972;8.242;2023-10-13T09:46:18;13.70;;;6.10;;
47856;SDS011;33618;49.972;8.242;2023-10-13T09:48:50;14.15;;;5.80;;
47856;SDS011;33618;49.972;8.242;2023-10-13T09:51:34;13.40;;;5.93;;
47856;SDS011;33618;49.972;8.242;2023-10-13T09:54:06;9.88;;;5.80;;
47856;SDS011;33618;49.972;8.242;2023-10-13T09:57:00;9.45;;;5.20;;
47856;SDS011;33618;49.972;8.242;2023-10-13T09:59:48;9.45;;;5.18;;
47856;SDS011;33618;49.972;8.242;2023-10-13T10:02:19;11.68;;;5.78;;
47856;SDS011;33618;49.972;8.242;2023-10-13T10:04:55;12.40;;;5.53;;
47856;SDS011;33618;49.972;8.242;2023-10-13T10:07:39;9.32;;;5.25;;
47856;SDS011;33618;49.972;8.242;2023-10-13T10:10:06;10.20;;;5.65;;
47856;SDS011;33618;49.972;8.242;2023-10-13T10:12:41;8.35;;;5.28;;
47856;SDS011;33618;49.972;8.242;2023-10-13T10:17:57;9.10;;;5.55;;
47856;SDS011;33618;49.972;8.242;2023-10-13T10:20:30;9.20;;;5.70;;
47856;SDS011;33618;49.972;8.242;2023-10-13T10:23:23;9.98;;;5.57;;
47856;SDS011;33618;49.972;8.242;2023-10-13T10:25:53;10.55;;;5.68;;
47856;SDS011;33618;49.972;8.242;2023-10-13T10:28:37;8.45;;;5.57;;
47856;SDS011;33618;49.972;8.242;2023-10-13T10:31:06;10.23;;;6.00;;
47856;SDS011;33618;49.972;8.242;2023-10-13T10:33:36;7.47;;;5.60;;
47856;SDS011;33618;49.972;8.242;2023-10-13T10:36:03;8.75;;;5.63;;
47856;SDS011;33618;49.972;8.242;2023-10-13T10:38:31;9.52;;;5.70;;
47856;SDS011;33618;49.972;8.242;2023-10-13T10:40:59;8.05;;;5.65;;
47856;SDS011;33618;49.972;8.242;2023-10-13T10:48:57;10.15;;;5.25;;
47856;SDS011;33618;49.972;8.242;2023-10-13T10:51:27;7.88;;;5.70;;
47856;SDS011;33618;49.972;8.242;2023-10-13T10:53:58;7.85;;;5.50;;
47856;SDS011;33618;49.972;8.242;2023-10-13T10:56:37;8.25;;;5.68;;
47856;SDS011;33618;49.972;8.242;2023-10-13T10:59:05;7.50;;;5.65;;
47856;SDS011;33618;49.972;8.242;2023-10-13T11:01:44;8.05;;;5.80;;
47856;SDS011;33618;49.972;8.242;2023-10-13T11:04:17;7.32;;;5.47;;
47856;SDS011;33618;49.972;8.242;2023-10-13T11:06:46;6.68;;;4.93;;
47856;SDS011;33618;49.972;8.242;2023-10-13T11:09:31;10.45;;;5.25;;
47856;SDS011;33618;49.972;8.242;2023-10-13T11:14:41;8.15;;;5.13;;
47856;SDS011;33618;49.972;8.242;2023-10-13T11:17:22;7.65;;;5.20;;
47856;SDS011;33618;49.972;8.242;2023-10-13T11:20:07;8.27;;;5.18;;
47856;SDS011;33618;49.972;8.242;2023-10-13T11:22:48;9.50;;;5.03;;
47856;SDS011;33618;49.972;8.242;2023-10-13T11:25:34;6.88;;;4.68;;
47856;SDS011;33618;49.972;8.242;2023-10-13T11:28:11;9.73;;;5.45;;
47856;SDS011;33618;49.972;8.242;2023-10-13T11:30:55;9.85;;;4.90;;
47856;SDS011;33618;49.972;8.242;2023-10-13T11:33:25;5.10;;;4.60;;
47856;SDS011;33618;49.972;8.242;2023-10-13T11:35:57;6.93;;;4.93;;
47856;SDS011;33618;49.972;8.242;2023-10-13T11:38:32;8.98;;;5.38;;
47856;SDS011;33618;49.972;8.242;2023-10-13T11:41:12;6.90;;;4.80;;
47856;SDS011;33618;49.972;8.242;2023-10-13T11:43:39;6.50;;;4.82;;
47856;SDS011;33618;49.972;8.242;2023-10-13T11:46:20;6.68;;;4.47;;
47856;SDS011;33618;49.972;8.242;2023-10-13T11:49:05;8.27;;;4.97;;
47856;SDS011;33618;49.972;8.242;2023-10-13T11:56:50;8.40;;;4.82;;
47856;SDS011;33618;49.972;8.242;2023-10-13T11:59:17;6.45;;;4.70;;
47856;SDS011;33618;49.972;8.242;2023-10-13T12:04:34;6.95;;;4.47;;
47856;SDS011;33618;49.972;8.242;2023-10-13T12:07:18;10.57;;;4.35;;
47856;SDS011;33618;49.972;8.242;2023-10-13T12:10:04;6.05;;;4.38;;
47856;SDS011;33618;49.972;8.242;2023-10-13T12:12:33;5.28;;;4.35;;
47856;SDS011;33618;49.972;8.242;2023-10-13T12:15:07;8.95;;;4.43;;
47856;SDS011;33618;49.972;8.242;2023-10-13T12:17:52;5.30;;;4.13;;
47856;SDS011;33618;49.972;8.242;2023-10-13T12:20:19;6.25;;;3.97;;
47856;SDS011;33618;49.972;8.242;2023-10-13T12:22:59;9.43;;;5.00;;
47856;SDS011;33618;49.972;8.242;2023-10-13T12:25:37;7.78;;;4.57;;
47856;SDS011;33618;49.972;8.242;2023-10-13T12:28:21;7.70;;;4.50;;
47856;SDS011;33618;49.972;8.242;2023-10-13T12:30:50;8.27;;;4.35;;
47856;SDS011;33618;49.972;8.242;2023-10-13T12:33:20;10.63;;;4.60;;
47856;SDS011;33618;49.972;8.242;2023-10-13T12:36:01;8.65;;;4.50;;
47856;SDS011;33618;49.972;8.242;2023-10-13T12:38:40;5.53;;;4.38;;
47856;SDS011;33618;49.972;8.242;2023-10-13T12:41:14;7.38;;;4.28;;
47856;SDS011;33618;49.972;8.242;2023-10-13T12:44:02;6.95;;;4.47;;
47856;SDS011;33618;49.972;8.242;2023-10-13T12:46:49;7.15;;;4.40;;
47856;SDS011;33618;49.972;8.242;2023-10-13T12:49:35;6.13;;;4.40;;
47856;SDS011;33618;49.972;8.242;2023-10-13T12:52:09;8.50;;;4.38;;
47856;SDS011;33618;49.972;8.242;2023-10-13T12:54:46;9.20;;;4.57;;
47856;SDS011;33618;49.972;8.242;2023-10-13T12:57:25;6.43;;;4.20;;
47856;SDS011;33618;49.972;8.242;2023-10-13T12:59:54;9.40;;;4.90;;
47856;SDS011;33618;49.972;8.242;2023-10-13T13:02:22;7.25;;;4.20;;
47856;SDS011;33618;49.972;8.242;2023-10-13T13:04:55;7.82;;;4.70;;
47856;SDS011;33618;49.972;8.242;2023-10-13T13:07:43;9.05;;;4.65;;
47856;SDS011;33618;49.972;8.242;2023-10-13T13:10:14;7.85;;;4.25;;
47856;SDS011;33618;49.972;8.242;2023-10-13T13:12:41;7.82;;;4.55;;
47856;SDS011;33618;49.972;8.242;2023-10-13T13:15:08;7.20;;;4.53;;
47856;SDS011;33618;49.972;8.242;2023-10-13T13:17:38;8.13;;;4.55;;
47856;SDS011;33618;49.972;8.242;2023-10-13T13:20:06;8.13;;;4.43;;
47856;SDS011;33618;49.972;8.242;2023-10-13T13:22:38;7.75;;;4.18;;
47856;SDS011;33618;49.972;8.242;2023-10-13T13:28:46;6.32;;;4.32;;
47856;SDS011;33618;49.972;8.242;2023-10-13T13:31:17;6.22;;;4.30;;
47856;SDS011;33618;49.972;8.242;2023-10-13T13:33:45;7.53;;;4.45;;
47856;SDS011;33618;49.972;8.242;2023-10-13T13:36:12;9.15;;;4.78;;
47856;SDS011;33618;49.972;8.242;2023-10-13T13:38:43;7.18;;;4.30;;
47856;SDS011;33618;49.972;8.242;2023-10-13T13:41:16;7.75;;;4.57;;
47856;SDS011;33618;49.972;8.242;2023-10-13T13:43:56;6.68;;;4.47;;
47856;SDS011;33618;49.972;8.242;2023-10-13T13:46:27;8.88;;;4.53;;
47856;SDS011;33618;49.972;8.242;2023-10-13T13:48:59;8.27;;;5.00;;
47856;SDS011;33618;49.972;8.242;2023-10-13T13:51:32;6.15;;;4.50;;
47856;SDS011;33618;49.972;8.242;2023-10-13T13:54:01;10.82;;;4.63;;
47856;SDS011;33618;49.972;8.242;2023-10-13T13:56:32;10.85;;;4.55;;
47856;SDS011;33618;49.972;8.242;2023-10-13T13:59:04;8.95;;;4.68;;
47856;SDS011;33618;49.972;8.242;2023-10-13T14:01:35;7.10;;;4.63;;
47856;SDS011;33618;49.972;8.242;2023-10-13T14:04:04;8.32;;;4.38;;
47856;SDS011;33618;49.972;8.242;2023-10-13T14:06:34;7.10;;;3.97;;
47856;SDS011;33618;49.972;8.242;2023-10-13T14:09:01;7.03;;;3.80;;
47856;SDS011;33618;49.972;8.242;2023-10-13T14:11:59;6.40;;;4.10;;
47856;SDS011;33618;49.972;8.242;2023-10-13T14:14:44;6.70;;;4.03;;
47856;SDS011;33618;49.972;8.242;2023-10-13T14:17:22;9.07;;;3.90;;
47856;SDS011;33618;49.972;8.242;2023-10-13T14:19:56;12.85;;;3.85;;
47856;SDS011;33618;49.972;8.242;2023-10-13T14:22:24;6.38;;;3.60;;
47856;SDS011;33618;49.972;8.242;2023-10-13T14:24:51;6.13;;;3.75;;
47856;SDS011;33618;49.972;8.242;2023-10-13T14:27:21;10.27;;;4.00;;
47856;SDS011;33618;49.972;8.242;2023-10-13T14:29:52;7.65;;;3.88;;
47856;SDS011;33618;49.972;8.242;2023-10-13T14:32:20;7.43;;;4.18;;
47856;SDS011;33618;49.972;8.242;2023-10-13T14:34:51;5.35;;;4.07;;
47856;SDS011;33618;49.972;8.242;2023-10-13T14:37:23;10.60;;;3.88;;
47856;SDS011;33618;49.972;8.242;2023-10-13T14:39:53;13.48;;;3.90;;
47856;SDS011;33618;49.972;8.242;2023-10-13T14:42:24;5.68;;;3.97;;
47856;SDS011;33618;49.972;8.242;2023-10-13T14:44:51;5.05;;;3.67;;
47856;SDS011;33618;49.972;8.242;2023-10-13T14:47:25;5.95;;;3.42;;
47856;SDS011;33618;49.972;8.242;2023-10-13T14:49:53;7.78;;;3.60;;
47856;SDS011;33618;49.972;8.242;2023-10-13T14:52:24;5.38;;;3.60;;
47856;SDS011;33618;49.972;8.242;2023-10-13T14:54:51;18.55;;;3.60;;
47856;SDS011;33618;49.972;8.242;2023-10-13T14:57:24;9.25;;;3.58;;
47856;SDS011;33618;49.972;8.242;2023-10-13T14:59:52;5.07;;;3.63;;
47856;SDS011;33618;49.972;8.242;2023-10-13T15:02:20;7.30;;;3.80;;
47856;SDS011;33618;49.972;8.242;2023-10-13T15:04:48;7.05;;;3.75;;
47856;SDS011;33618;49.972;8.242;2023-10-13T15:07:16;7.00;;;3.45;;
47856;SDS011;33618;49.972;8.242;2023-10-13T15:09:44;8.15;;;3.70;;
47856;SDS011;33618;49.972;8.242;2023-10-13T15:12:11;10.48;;;3.50;;
47856;SDS011;33618;49.972;8.242;2023-10-13T15:14:44;7.22;;;4.03;;
47856;SDS011;33618;49.972;8.242;2023-10-13T15:17:11;10.10;;;3.72;;
47856;SDS011;33618;49.972;8.242;2023-10-13T15:19:42;6.90;;;3.90;;
47856;SDS011;33618;49.972;8.242;2023-10-13T15:22:09;11.52;;;3.70;;
47856;SDS011;33618;49.972;8.242;2023-10-13T15:24:48;6.93;;;3.60;;
47856;SDS011;33618;49.972;8.242;2023-10-13T15:27:35;8.13;;;3.83;;
47856;SDS011;33618;49.972;8.242;2023-10-13T15:30:08;9.10;;;3.40;;
47856;SDS011;33618;49.972;8.242;2023-10-13T15:32:46;10.45;;;3.75;;
47856;SDS011;33618;49.972;8.242;2023-10-13T15:35:15;9.65;;;3.88;;
47856;SDS011;33618;49.972;8.242;2023-10-13T15:37:42;8.98;;;4.20;;
47856;SDS011;33618;49.972;8.242;2023-10-13T15:40:14;10.50;;;3.85;;
47856;SDS011;33618;49.972;8.242;2023-10-13T15:42:44;12.00;;;3.90;;
47856;SDS011;33618;49.972;8.242;2023-10-13T15:45:13;9.85;;;3.90;;
47856;SDS011;33618;49.972;8.242;2023-10-13T15:47:44;7.32;;;3.80;;
47856;SDS011;33618;49.972;8.242;2023-10-13T15:50:17;10.00;;;3.80;;
47856;SDS011;33618;49.972;8.242;2023-10-13T15:52:48;7.40;;;3.75;;
47856;SDS011;33618;49.972;8.242;2023-10-13T15:55:15;9.55;;;4.20;;
47856;SDS011;33618;49.972;8.242;2023-10-13T15:57:46;8.77;;;3.53;;
47856;SDS011;33618;49.972;8.242;2023-10-13T16:00:19;7.50;;;3.78;;
47856;SDS011;33618;49.972;8.242;2023-10-13T16:02:50;7.70;;;3.58;;
47856;SDS011;33618;49.972;8.242;2023-10-13T16:05:21;6.70;;;3.75;;